| Date | Time | Temp. (oF) | Dew Point (oF) | Rel. Hum. (%) | Press. (in.) | Wind Dir. (deg.) | Wind Speed (mph) | Hourly Rainfall (i n.) |
|
|---|---|---|---|---|---|---|---|---|---|
| 1 | 10/04 | 24:00 | 62 | 55 | 78 | 30.42 | 10 | 0 | 0.00 |
| 2 | 10/03 | 23:00 | 62 | 54 | 77 | 30.43 | 10 | 0 | 0.00 |
| 3 | 10/03 | 22:00 | 63 | 55 | 76 | 30.40 | 10 | 0 | 0.00 |
| 4 | 10/03 | 21:00 | 64 | 56 | 76 | 30.41 | 10 | 0 | 0.00 |
| 5 | 10/03 | 20:00 | 65 | 56 | 73 | 30.42 | 30 | 1 | 0.00 |
| 6 | 10/03 | 19:00 | 68 | 58 | 71 | 30.44 | 360 | 0 | 0.00 |
| 7 | 10/03 | 18:00 | 70 | 59 | 69 | 30.44 | 310 | 0 | 0.00 |
| 8 | 10/03 | 17:00 | 72 | 58 | 63 | 30.45 | 300 | 0 | 0.00 |
| 9 | 10/03 | 16:00 | 73 | 57 | 58 | 30.45 | 310 | 2 | 0.00 |
| 10 | 10/03 | 15:00 | 73 | 57 | 59 | 30.44 | 350 | 2 | 0.00 |
| 11 | 10/03 | 14:00 | 72 | 56 | 59 | 30.43 | 330 | 1 | 0.00 |
| 12 | 10/03 | 13:00 | 71 | 56 | 60 | 30.44 | 30 | 0 | 0.00 |
| 13 | 10/03 | 12:00 | 69 | 57 | 67 | 30.45 | 300 | 4 | 0.00 |
| 14 | 10/03 | 11:00 | 66 | 57 | 73 | 30.45 | 310 | 6 | 0.00 |
| 15 | 10/03 | 10:00 | 62 | 57 | 85 | 30.43 | 270 | 2 | 0.00 |
| 16 | 10/03 | 09:00 | 59 | 55 | 89 | 30.42 | 330 | 0 | 0.00 |
| 17 | 10/03 | 08:00 | 57 | 53 | 89 | 30.40 | 330 | 0 | 0.00 |
| 18 | 10/03 | 07:00 | 56 | 52 | 88 | 30.42 | 330 | 0 | 0.00 |
| 19 | 10/03 | 06:00 | 57 | 53 | 87 | 30.41 | 330 | 0 | 0.00 |
| 20 | 10/03 | 05:00 | 58 | 54 | 87 | 30.40 | 330 | 0 | 0.00 |
| 21 | 10/03 | 04:00 | 60 | 55 | 86 | 30.39 | 330 | 0 | 0.00 |
| 22 | 10/03 | 03:00 | 62 | 56 | 83 | 30.39 | 330 | 0 | 0.00 |
| 23 | 10/03 | 02:00 | 62 | 56 | 83 | 30.40 | 330 | 0 | 0.00 |
| 24 | 10/03 | 01:00 | 62 | 57 | 84 | 30.40 | 150 | 1 | 0.00 |